Defiance, Ohio
Current Conditions -  °F | °C
As of 4:53 AM on Sunday 23 Nov 2014 (Local Time) from KDFI Reporting Station
Overcast Overcast  
Wind Chill: 44°   Ceiling: 3300
Heat Index: 47°   Visibility: 10mi
Dew Point: 44°   Wind: 7mph
Humidity: 90%   Direction: 190°S
Pressure: 29.95"   Gusts: NA
Location:  41.29°N, 84.36°W
Report Text: KDFI 230953Z AUTO 19006KT 10SM BKN033 BKN039 OVC060 08/07 A2995 RMK AO2 RAE53 SLP146 P0002 T00830067
Loading
Personal Weather Stations






























Interactive Weather Map New forecast layout! Learn more

10-Day Weather Forecast

Advertisements
Track Severe Weather on mobile